CheckWX is a tool to help pilots better visualize weather data.  It is not intended as a substitute for an official pre-flight weather briefing.

18:02:13 UTC

KBLI METAR
Bellingham International Airport
Bellingham, Washington, USA
Current

1 hour ago

KBLI 091653Z VRB05KT 10SM SCT005 BKN010 OVC050 15/13 A3000 RMK AO2 RAE34 SLP163 P0002 T01500133
Observed
Jul-9 @ 16:53 UTC
Wind
  • Variable at 5 KTS
Visibility
10 SM
Flight Rules
MVFR
Cloud Levels
  • Scattered at 500' AGL
  • Broken at 1,000' AGL
  • Overcast at 5,000' AGL
Temperature
15°C / 59°F
Dewpoint
13°C / 55°F
Humidity
88%
Altimeter
30" Hg
Pressure
1015.92 hPa
Current Rain
0.02"
Previous

2 hours ago

KBLI 091553Z 19003KT 5SM -RA BR SCT005 BKN010 OVC050 14/13 A2999 RMK AO2 SLP163 P0006 T01390128
Observed
Jul-9 @ 15:53 UTC
Wind
  • 190° at 3 KTS
Visibility
5 SM
Flight Rules
MVFR
Conditions
Light Rain, Mist
Cloud Levels
  • Scattered at 500' AGL
  • Broken at 1,000' AGL
  • Overcast at 5,000' AGL
Temperature
14°C / 57°F
Dewpoint
13°C / 55°F
Humidity
94%
Altimeter
29.99" Hg
Pressure
1015.62 hPa
Current Rain
0.06"
Previous

3 hours ago

KBLI 091453Z 19005KT 4SM -RA BR SCT005 BKN010 OVC050 14/13 A2999 RMK AO2 SLP161 P0002 60012 T01440128 53001
Observed
Jul-9 @ 14:53 UTC
Wind
  • 190° at 5 KTS
Visibility
4 SM
Flight Rules
MVFR
Conditions
Light Rain, Mist
Cloud Levels
  • Scattered at 500' AGL
  • Broken at 1,000' AGL
  • Overcast at 5,000' AGL
Temperature
14°C / 57°F
Dewpoint
13°C / 55°F
Humidity
94%
Altimeter
29.99" Hg
Pressure
1015.62 hPa
Current Rain
0.02"